Time;durP1;ratioP1;P1;durP2;ratioP2;P2;SDS_P1;SDS_P2;PMS_P1;PMS_P2;Temp;Humidity;BMP_temperature;BMP_pressure;BME280_temperature;BME280_humidity;BME280_pressure;Samples;Min_cycle;Max_cycle;Signal;HPM_P1;HPM_P2
2022/01/06 00:00:32;;;;;;;;;;;;;;;18.25;69.56;99892.66;5049715;28;1495;-34
2022/01/06 00:02:59;;;;;;;;;;;;;;;18.23;69.54;99897.31;5053103;28;1583;-34
2022/01/06 00:05:25;;;;;;;;;;;;;;;18.20;69.60;99892.25;5048708;28;1795;-34
2022/01/06 00:07:52;;;;;;;;;;;;;;;18.14;69.57;99881.31;5054480;28;1902;-34
2022/01/06 00:10:19;;;;;;;;;;;;;;;18.12;69.81;99902.03;5039681;28;1441;-35
2022/01/06 00:13:01;;;;;;;;;;;;;;;18.11;69.99;99897.69;5055077;28;1001;-34
2022/01/06 00:15:34;;;;;;;;;;;;;;;18.06;69.72;99896.31;5054785;28;1327;-34
2022/01/06 00:23:30;;;;;;;;;;;;;;;17.97;69.50;99896.38;5054418;28;1636;-34
2022/01/06 00:25:57;;;;;;;;;;;;;;;17.96;69.45;99900.03;5054249;28;1450;-34
2022/01/06 00:28:25;;;;;;;;;;;;;;;17.93;69.43;99922.56;5054046;28;1997;-34
2022/01/06 00:30:51;;;;;;;;;;;;;;;17.91;69.47;99915.69;5053833;28;1581;-34
2022/01/06 00:33:18;;;;;;;;;;;;;;;17.88;69.39;99909.63;5053192;28;1568;-34
2022/01/06 00:35:44;;;;;;;;;;;;;;;17.85;69.44;99919.81;5050018;28;1526;-34
2022/01/06 00:38:11;;;;;;;;;;;;;;;17.83;69.37;99900.38;5053924;28;1591;-34
2022/01/06 00:40:38;;;;;;;;;;;;;;;17.82;69.64;99901.34;5053053;28;1616;-34
2022/01/06 00:43:05;;;;;;;;;;;;;;;17.78;69.49;99903.47;5053274;28;1587;-34
2022/01/06 00:45:33;;;;;;;;;;;;;;;17.79;69.34;99912.34;5052582;28;1584;-34
2022/01/06 00:47:59;;;;;;;;;;;;;;;17.78;69.30;99910.66;5053657;28;2048;-34
2022/01/06 00:50:26;;;;;;;;;;;;;;;17.74;69.42;99902.06;5043918;28;1616;-34
2022/01/06 00:52:53;;;;;;;;;;;;;;;17.72;69.47;99903.22;5052842;28;1602;-34
2022/01/06 00:55:19;;;;;;;;;;;;;;;17.71;68.70;99915.75;5054055;28;1130;-34
2022/01/06 00:57:46;;;;;;;;;;;;;;;17.72;69.42;99914.75;5053142;28;1419;-34
2022/01/06 01:00:13;;;;;;;;;;;;;;;17.68;69.48;99908.03;5048950;28;1790;-35
2022/01/06 01:02:41;;;;;;;;;;;;;;;17.63;69.43;99899.63;5052973;28;1614;-34
2022/01/06 01:05:07;;;;;;;;;;;;;;;17.67;69.61;99917.03;5052959;28;1535;-34
2022/01/06 01:07:34;;;;;;;;;;;;;;;17.63;69.46;99895.09;5050067;28;1906;-34
2022/01/06 01:10:00;;;;;;;;;;;;;;;17.65;69.45;99898.47;5052630;28;1669;-34
2022/01/06 01:12:27;;;;;;;;;;;;;;;17.63;69.65;99904.97;5051753;28;1966;-34
2022/01/06 01:14:57;;;;;;;;;;;;;;;17.62;69.47;99908.63;5044426;28;1686;-34
2022/01/06 01:17:26;;;;;;;;;;;;;;;17.60;69.14;99907.91;5051020;28;1408;-34
2022/01/06 01:19:54;;;;;;;;;;;;;;;17.58;69.78;99900.03;5046850;28;1522;-34
2022/01/06 01:22:20;;;;;;;;;;;;;;;17.57;69.04;99894.88;5053150;28;2027;-34
2022/01/06 01:24:47;;;;;;;;;;;;;;;17.58;69.77;99918.75;5052829;28;1726;-34
2022/01/06 01:27:15;;;;;;;;;;;;;;;17.54;69.61;99908.50;5050482;28;1874;-34
2022/01/06 01:29:55;;;;;;;;;;;;;;;17.55;69.27;99896.81;5053301;28;1909;-34
2022/01/06 01:32:28;;;;;;;;;;;;;;;17.52;69.15;99902.47;5048224;28;1458;-34
2022/01/06 01:35:00;;;;;;;;;;;;;;;17.49;69.25;99909.78;5044015;28;1518;-34
2022/01/06 01:37:27;;;;;;;;;;;;;;;17.51;69.10;99906.97;5053668;28;989;-34
2022/01/06 01:39:53;;;;;;;;;;;;;;;17.46;69.31;99895.88;5050665;28;1622;-34
2022/01/06 01:42:20;;;;;;;;;;;;;;;17.46;69.28;99906.56;5053267;28;2085;-34
2022/01/06 01:44:48;;;;;;;;;;;;;;;17.46;69.21;99893.19;5050932;28;1827;-34
2022/01/06 01:47:16;;;;;;;;;;;;;;;17.42;69.33;99908.69;5052773;28;1596;-34
2022/01/06 01:49:50;;;;;;;;;;;;;;;17.42;69.20;99906.00;5047601;28;1917;-34
2022/01/06 01:52:18;;;;;;;;;;;;;;;17.43;69.20;99914.91;5050101;28;1627;-34
2022/01/06 01:54:44;;;;;;;;;;;;;;;17.39;69.47;99902.78;5046211;28;1555;-34
2022/01/06 01:57:10;;;;;;;;;;;;;;;17.39;69.04;99902.78;5051726;28;1424;-34
2022/01/06 01:59:37;;;;;;;;;;;;;;;17.38;69.17;99896.59;5052649;28;1440;-34
2022/01/06 02:02:04;;;;;;;;;;;;;;;17.46;69.20;99895.88;5050260;28;1676;-34
2022/01/06 02:04:30;;;;;;;;;;;;;;;17.81;68.30;99903.19;5050692;28;1279;-34
2022/01/06 02:06:57;;;;;;;;;;;;;;;18.06;67.74;99909.69;5044591;28;1771;-34
2022/01/06 02:09:24;;;;;;;;;;;;;;;18.07;67.88;99918.56;5046454;28;1906;-34
2022/01/06 02:11:51;;;;;;;;;;;;;;;18.12;68.35;99916.25;5051168;28;1589;-34
2022/01/06 02:14:17;;;;;;;;;;;;;;;18.12;68.40;99916.25;5050999;28;1464;-34
2022/01/06 02:16:44;;;;;;;;;;;;;;;18.21;67.59;99912.69;5052968;28;1638;-34
2022/01/06 02:19:10;;;;;;;;;;;;;;;18.31;67.45;99903.75;5046753;28;1569;-34
2022/01/06 02:21:40;;;;;;;;;;;;;;;18.35;67.70;99913.16;5046172;28;1764;-34
2022/01/06 02:24:07;;;;;;;;;;;;;;;18.27;67.51;99912.06;5052433;28;1496;-34
2022/01/06 02:26:33;;;;;;;;;;;;;;;18.29;67.34;99934.19;5050253;28;2070;-34
2022/01/06 02:29:00;;;;;;;;;;;;;;;18.25;67.54;99918.59;5045102;28;1965;-34
2022/01/06 02:31:27;;;;;;;;;;;;;;;18.25;67.63;99914.06;5050629;28;1350;-34
2022/01/06 02:33:54;;;;;;;;;;;;;;;18.23;67.81;99920.56;5052019;28;1371;-34
2022/01/06 02:36:20;;;;;;;;;;;;;;;18.19;68.22;99901.28;5051682;28;1581;-34
2022/01/06 02:38:48;;;;;;;;;;;;;;;18.22;67.94;99921.56;5052325;28;1684;-34
2022/01/06 02:41:15;;;;;;;;;;;;;;;18.24;67.77;99935.63;5047488;28;1634;-34
2022/01/06 02:43:41;;;;;;;;;;;;;;;18.19;67.88;99917.34;5051358;28;1412;-34
2022/01/06 02:46:09;;;;;;;;;;;;;;;18.19;67.90;99928.06;5052229;28;1512;-34
2022/01/06 02:48:36;;;;;;;;;;;;;;;18.23;67.53;99928.59;5046350;28;1965;-33
2022/01/06 02:51:02;;;;;;;;;;;;;;;18.21;67.30;99934.09;5050716;28;1696;-34
2022/01/06 02:53:28;;;;;;;;;;;;;;;18.24;67.69;99933.81;5051803;28;1553;-34
2022/01/06 02:55:56;;;;;;;;;;;;;;;18.26;67.71;99939.84;5051703;28;1635;-34
2022/01/06 02:58:23;;;;;;;;;;;;;;;18.22;67.51;99943.81;5052404;28;1811;-34
2022/01/06 03:01:14;;;;;;;;;;;;;;;18.23;67.47;99942.81;5166550;23;3631;-34
2022/01/06 03:03:41;;;;;;;;;;;;;;;18.23;67.36;99940.13;5049842;28;1540;-34
2022/01/06 03:06:07;;;;;;;;;;;;;;;18.23;67.52;99948.16;5055554;28;1338;-34
2022/01/06 03:08:35;;;;;;;;;;;;;;;18.20;67.67;99935.06;5055479;28;1906;-34
2022/01/06 03:11:03;;;;;;;;;;;;;;;18.23;67.73;99940.13;5053064;28;1638;-34
2022/01/06 03:13:29;;;;;;;;;;;;;;;18.21;67.98;99928.75;5055629;28;1600;-35
2022/01/06 03:15:57;;;;;;;;;;;;;;;18.25;67.63;99927.44;5055968;28;1850;-34
2022/01/06 03:18:23;;;;;;;;;;;;;;;18.25;67.30;99918.59;5055361;28;1741;-34
2022/01/06 03:20:50;;;;;;;;;;;;;;;18.25;67.73;99927.44;5054126;28;1408;-34
2022/01/06 03:23:16;;;;;;;;;;;;;;;18.25;67.44;99926.63;5055654;28;1857;-34
2022/01/06 03:25:43;;;;;;;;;;;;;;;18.26;67.67;99939.84;5050929;28;1940;-34
2022/01/06 03:28:11;;;;;;;;;;;;;;;18.24;67.56;99936.50;5053262;28;1490;-34
2022/01/06 03:30:38;;;;;;;;;;;;;;;18.28;67.62;99943.22;5055194;28;1972;-34
2022/01/06 03:33:04;;;;;;;;;;;;;;;18.25;67.51;99938.16;5055426;28;1597;-34
2022/01/06 03:35:31;;;;;;;;;;;;;;;18.22;67.06;99934.94;5054357;28;1498;-34
2022/01/06 03:37:57;;;;;;;;;;;;;;;18.26;66.99;99938.97;5047431;28;1495;-34
2022/01/06 03:40:23;;;;;;;;;;;;;;;18.32;67.12;99956.28;5052428;28;1530;-35
2022/01/06 03:42:50;;;;;;;;;;;;;;;18.29;67.38;99944.06;5054238;28;1489;-34
2022/01/06 03:45:19;;;;;;;;;;;;;;;18.24;67.27;99947.19;5054942;28;1802;-35
2022/01/06 03:47:46;;;;;;;;;;;;;;;18.31;67.37;99941.22;5052209;28;1757;-34
2022/01/06 03:50:13;;;;;;;;;;;;;;;18.31;67.35;99958.13;5054569;28;1910;-34
2022/01/06 03:52:40;;;;;;;;;;;;;;;18.47;66.62;99957.44;5053769;28;1466;-34
2022/01/06 03:55:07;;;;;;;;;;;;;;;18.53;66.17;99947.97;5049414;28;2546;-34
2022/01/06 03:57:34;;;;;;;;;;;;;;;18.52;67.01;99951.63;5054660;28;1707;-34
2022/01/06 04:00:01;;;;;;;;;;;;;;;18.59;66.77;99950.03;5054477;28;1762;-34
2022/01/06 04:02:29;;;;;;;;;;;;;;;18.69;65.80;99943.59;5054596;28;1828;-34
2022/01/06 04:04:55;;;;;;;;;;;;;;;18.74;65.72;99953.00;5054086;28;1647;-34
2022/01/06 04:07:21;;;;;;;;;;;;;;;18.89;65.93;99946.16;5051141;28;1946;-37
2022/01/06 04:09:49;;;;;;;;;;;;;;;19.01;65.48;99939.53;5052160;28;1977;-34
2022/01/06 04:12:15;;;;;;;;;;;;;;;18.89;65.64;99956.88;5053766;28;1782;-34
2022/01/06 04:14:42;;;;;;;;;;;;;;;18.77;65.93;99936.66;5053345;28;1548;-34
2022/01/06 04:17:09;;;;;;;;;;;;;;;18.83;65.63;99960.16;5054301;28;1424;-34
2022/01/06 04:19:37;;;;;;;;;;;;;;;18.86;66.05;99965.19;5054238;28;1709;-34
2022/01/06 04:22:04;;;;;;;;;;;;;;;18.86;65.81;99965.19;5054780;28;1758;-34
2022/01/06 04:24:30;;;;;;;;;;;;;;;18.85;65.51;99960.84;5049616;28;1596;-34
2022/01/06 04:26:57;;;;;;;;;;;;;;;18.80;65.82;99965.81;5053554;28;1499;-34
2022/01/06 04:29:23;;;;;;;;;;;;;;;18.79;65.94;99966.81;5054381;28;1910;-34
2022/01/06 04:31:49;;;;;;;;;;;;;;;18.81;65.55;99967.50;5054156;28;1483;-34
2022/01/06 04:34:16;;;;;;;;;;;;;;;18.85;65.31;99980.44;5052121;28;1616;-34
2022/01/06 04:36:49;;;;;;;;;;;;;;;18.83;65.43;99990.47;5054152;28;1810;-34
2022/01/06 04:39:15;;;;;;;;;;;;;;;18.92;65.84;99988.72;5052706;28;1455;-34
2022/01/06 04:41:42;;;;;;;;;;;;;;;18.82;66.30;99987.94;5053248;28;1588;-34
2022/01/06 04:44:09;;;;;;;;;;;;;;;18.76;65.86;99986.69;5053962;28;1821;-34
2022/01/06 04:46:35;;;;;;;;;;;;;;;18.80;65.80;99984.56;5054227;28;1604;-34
2022/01/06 04:49:01;;;;;;;;;;;;;;;18.82;65.80;99993.28;5049492;28;1898;-34
2022/01/06 04:51:28;;;;;;;;;;;;;;;18.85;65.96;99990.31;5053488;28;1776;-34
2022/01/06 04:53:56;;;;;;;;;;;;;;;18.87;65.78;99999.88;5053663;28;1651;-34
2022/01/06 04:56:22;;;;;;;;;;;;;;;18.86;65.28;100006.25;5053890;28;1611;-34
2022/01/06 04:58:49;;;;;;;;;;;;;;;18.84;65.27;100018.94;5046850;28;1500;-34
2022/01/06 05:01:16;;;;;;;;;;;;;;;18.80;65.00;100000.63;5053321;28;1660;-35
2022/01/06 05:03:42;;;;;;;;;;;;;;;18.81;65.27;100002.34;5053914;28;1470;-34
2022/01/06 05:06:09;;;;;;;;;;;;;;;18.84;65.02;100007.38;5053160;28;1714;-35
2022/01/06 05:08:35;;;;;;;;;;;;;;;18.82;64.82;99999.50;5053257;28;1634;-34
2022/01/06 05:11:03;;;;;;;;;;;;;;;18.74;65.58;99991.38;5042949;28;1906;-34
2022/01/06 05:13:29;;;;;;;;;;;;;;;18.69;66.23;100015.91;5042910;28;1301;-34
2022/01/06 05:15:56;;;;;;;;;;;;;;;18.73;66.33;99994.19;5044096;28;1514;-35
2022/01/06 05:18:22;;;;;;;;;;;;;;;18.71;66.28;100006.91;5043352;28;1441;-35
2022/01/06 05:20:49;;;;;;;;;;;;;;;18.66;66.06;100005.53;5044993;28;1271;-34
2022/01/06 05:23:15;;;;;;;;;;;;;;;18.68;66.52;100005.34;5045224;28;1553;-34
2022/01/06 05:25:42;;;;;;;;;;;;;;;18.66;66.36;100010.88;5043696;28;1395;-34
2022/01/06 05:28:09;;;;;;;;;;;;;;;18.65;66.21;100001.16;5044106;28;1659;-34
2022/01/06 05:30:36;;;;;;;;;;;;;;;18.69;66.37;100021.28;5044957;28;1914;-34
2022/01/06 05:33:02;;;;;;;;;;;;;;;18.68;65.88;100008.88;5043628;28;1484;-34
2022/01/06 05:35:29;;;;;;;;;;;;;;;18.68;66.28;100011.56;5043142;28;1445;-35
2022/01/06 05:37:55;;;;;;;;;;;;;;;18.68;66.40;100024.97;5044991;28;1533;-34
2022/01/06 05:40:22;;;;;;;;;;;;;;;18.74;66.47;100017.28;5043893;28;1602;-35
2022/01/06 05:42:49;;;;;;;;;;;;;;;18.71;65.99;100031.00;5044147;28;1359;-34
2022/01/06 05:45:17;;;;;;;;;;;;;;;18.77;65.25;100027.72;5049436;28;1663;-34
2022/01/06 05:47:44;;;;;;;;;;;;;;;18.75;65.33;100027.84;5047542;28;1538;-34
2022/01/06 05:50:11;;;;;;;;;;;;;;;18.72;66.05;100013.94;5044041;28;1909;-35
2022/01/06 05:52:37;;;;;;;;;;;;;;;18.68;65.72;100035.66;5049500;28;1220;-34
2022/01/06 05:55:04;;;;;;;;;;;;;;;18.74;65.33;100018.16;5051989;28;1935;-34
2022/01/06 05:57:30;;;;;;;;;;;;;;;18.71;65.83;100039.03;5051982;28;1711;-35
2022/01/06 05:59:57;;;;;;;;;;;;;;;18.71;65.11;100047.06;5048296;28;1752;-35
2022/01/06 06:02:24;;;;;;;;;;;;;;;18.49;66.44;100058.03;5049744;28;1521;-34
2022/01/06 06:04:52;;;;;;;;;;;;;;;18.22;66.65;100055.34;5053190;28;1142;-34
2022/01/06 06:07:19;;;;;;;;;;;;;;;18.05;67.36;100054.31;5052952;28;1883;-34
2022/01/06 06:09:46;;;;;;;;;;;;;;;17.97;67.38;100052.38;5051529;28;1975;-34
2022/01/06 06:12:12;;;;;;;;;;;;;;;17.93;67.59;100053.66;5048405;28;1681;-34
2022/01/06 06:14:39;;;;;;;;;;;;;;;17.90;67.63;100051.25;5052918;28;1720;-34
2022/01/06 06:17:05;;;;;;;;;;;;;;;17.86;68.26;100060.56;5052166;28;1779;-35
2022/01/06 06:19:33;;;;;;;;;;;;;;;17.85;68.45;100058.88;5052970;28;1004;-34
2022/01/06 06:21:59;;;;;;;;;;;;;;;17.80;68.42;100061.09;5052564;28;1800;-34
2022/01/06 06:24:26;;;;;;;;;;;;;;;17.77;68.83;100051.56;5048444;28;2228;-35
2022/01/06 06:26:52;;;;;;;;;;;;;;;17.73;68.79;100063.53;5049821;28;1512;-34
2022/01/06 06:29:19;;;;;;;;;;;;;;;17.75;68.41;100052.69;5049714;28;1910;-35
2022/01/06 06:31:45;;;;;;;;;;;;;;;17.71;68.97;100052.13;5050461;28;1747;-35
2022/01/06 06:34:12;;;;;;;;;;;;;;;17.79;69.10;100070.97;5048719;28;1681;-34
2022/01/06 06:36:40;;;;;;;;;;;;;;;17.90;68.78;100059.28;5052940;28;2032;-35
2022/01/06 06:39:06;;;;;;;;;;;;;;;17.95;69.75;100075.75;5050907;28;1582;-35
2022/01/06 06:41:33;;;;;;;;;;;;;;;18.08;69.08;100075.41;5048721;28;1567;-34
2022/01/06 06:43:59;;;;;;;;;;;;;;;18.25;69.39;100066.63;5047192;28;1612;-35
2022/01/06 06:46:26;;;;;;;;;;;;;;;18.17;69.16;100079.88;5047312;28;1605;-35
2022/01/06 06:48:52;;;;;;;;;;;;;;;18.14;69.02;100074.81;5045669;28;1329;-35
2022/01/06 06:51:19;;;;;;;;;;;;;;;18.17;68.92;100087.91;5049475;28;1906;-35
2022/01/06 06:53:47;;;;;;;;;;;;;;;18.26;68.31;100079.03;5049224;28;1361;-35
2022/01/06 06:56:13;;;;;;;;;;;;;;;18.30;68.08;100092.91;5045288;28;1735;-34
2022/01/06 06:58:40;;;;;;;;;;;;;;;18.33;68.18;100095.31;5054302;28;1706;-35
2022/01/06 07:01:06;;;;;;;;;;;;;;;18.37;68.23;100085.16;5052351;28;1453;-35
2022/01/06 07:03:33;;;;;;;;;;;;;;;18.58;67.61;100088.44;5056061;28;1284;-35
2022/01/06 07:05:59;;;;;;;;;;;;;;;18.58;67.36;100088.44;5044036;28;1378;-35
2022/01/06 07:08:26;;;;;;;;;;;;;;;18.63;67.29;100091.50;5049269;28;1663;-34
2022/01/06 07:10:56;;;;;;;;;;;;;;;18.79;67.14;100087.34;5056175;28;1980;-35
2022/01/06 07:13:30;;;;;;;;;;;;;;;18.84;66.47;100087.75;5056239;28;1074;-35
2022/01/06 07:15:57;;;;;;;;;;;;;;;18.85;66.32;100106.34;5055633;28;1651;-34
2022/01/06 07:18:23;;;;;;;;;;;;;;;18.94;66.35;100101.94;5055653;28;1472;-36
2022/01/06 07:20:49;;;;;;;;;;;;;;;18.79;66.56;100098.91;5050628;28;1487;-35
2022/01/06 07:23:16;;;;;;;;;;;;;;;18.87;66.45;100108.88;5053015;28;1914;-35
2022/01/06 07:25:42;;;;;;;;;;;;;;;18.90;66.07;100110.41;5055125;28;1729;-34
2022/01/06 07:28:10;;;;;;;;;;;;;;;19.10;65.17;100108.44;5055060;28;1601;-35
2022/01/06 07:30:37;;;;;;;;;;;;;;;19.15;66.21;100111.50;5054994;28;1910;-35
2022/01/06 07:33:03;;;;;;;;;;;;;;;19.13;66.12;100117.03;5056822;28;1810;-35
2022/01/06 07:35:29;;;;;;;;;;;;;;;19.17;66.53;100104.16;5054697;28;1465;-35
2022/01/06 07:37:56;;;;;;;;;;;;;;;19.13;66.38;100113.50;5055286;28;1667;-35
2022/01/06 07:40:22;;;;;;;;;;;;;;;19.20;66.90;100109.19;5054875;28;1432;-35
2022/01/06 07:42:49;;;;;;;;;;;;;;;19.22;66.88;100117.97;5055566;28;1087;-34
2022/01/06 07:45:20;;;;;;;;;;;;;;;19.28;66.09;100109.31;5052977;28;1571;-34
2022/01/06 07:47:56;;;;;;;;;;;;;;;19.22;66.84;100109.91;5055170;28;1793;-35
2022/01/06 07:50:25;;;;;;;;;;;;;;;19.01;66.38;100113.72;5047709;28;1898;-35
2022/01/06 07:52:52;;;;;;;;;;;;;;;18.97;66.01;100116.84;5057780;28;1766;-35
2022/01/06 07:55:18;;;;;;;;;;;;;;;18.98;65.47;100097.97;5049596;28;1336;-35
2022/01/06 07:57:45;;;;;;;;;;;;;;;18.97;65.67;100100.78;5055081;28;3099;-35
2022/01/06 08:00:12;;;;;;;;;;;;;;;18.94;65.79;100120.69;5054382;28;2045;-35
2022/01/06 08:02:40;;;;;;;;;;;;;;;18.97;66.49;100117.69;5054625;28;1961;-35
2022/01/06 08:05:09;;;;;;;;;;;;;;;19.04;65.68;100109.91;5055142;28;1705;-36
2022/01/06 08:07:35;;;;;;;;;;;;;;;19.11;66.26;100132.41;5055044;28;1162;-35
2022/01/06 08:10:02;;;;;;;;;;;;;;;19.12;65.69;100118.03;5054528;28;1969;-35
2022/01/06 08:12:28;;;;;;;;;;;;;;;19.21;64.86;100122.47;5054907;28;1746;-36
2022/01/06 08:14:55;;;;;;;;;;;;;;;19.15;64.88;100111.50;5054591;28;1929;-34
2022/01/06 08:17:21;;;;;;;;;;;;;;;19.19;64.81;100132.50;5055054;28;1698;-35
2022/01/06 08:19:49;;;;;;;;;;;;;;;19.24;65.35;100132.88;5055165;28;1084;-35
2022/01/06 08:22:16;;;;;;;;;;;;;;;19.25;65.92;100152.50;5054886;28;1945;-35
2022/01/06 08:24:42;;;;;;;;;;;;;;;19.27;65.90;100147.81;5054816;28;1941;-35
2022/01/06 08:27:09;;;;;;;;;;;;;;;19.33;65.50;100147.19;5054814;28;1679;-35
2022/01/06 08:29:35;;;;;;;;;;;;;;;19.34;65.83;100153.41;5054405;28;1620;-35
2022/01/06 08:32:02;;;;;;;;;;;;;;;19.42;65.18;100151.66;5054174;28;1910;-35
2022/01/06 08:34:28;;;;;;;;;;;;;;;19.42;65.90;100148.97;5054749;28;961;-35
2022/01/06 08:36:56;;;;;;;;;;;;;;;19.38;65.98;100147.59;5054338;28;1918;-35
2022/01/06 08:39:23;;;;;;;;;;;;;;;19.42;65.25;100143.63;5054010;28;1592;-35
2022/01/06 08:41:50;;;;;;;;;;;;;;;19.38;65.94;100142.25;5053605;28;1570;-35
2022/01/06 08:44:16;;;;;;;;;;;;;;;19.44;65.80;100143.47;5054412;28;1723;-35
2022/01/06 08:46:43;;;;;;;;;;;;;;;19.41;65.34;100125.81;5054031;28;1631;-35
2022/01/06 08:49:11;;;;;;;;;;;;;;;19.42;65.90;100146.28;5054755;28;1023;-34
2022/01/06 08:51:38;;;;;;;;;;;;;;;19.43;65.96;100142.59;5053855;28;1969;-35
2022/01/06 08:54:06;;;;;;;;;;;;;;;19.43;65.93;100142.59;5053442;28;1576;-35
2022/01/06 08:56:41;;;;;;;;;;;;;;;19.41;65.45;100120.47;5053052;28;1754;-35
2022/01/06 08:59:08;;;;;;;;;;;;;;;19.33;66.34;100123.06;5039813;28;1775;-35
2022/01/06 09:01:35;;;;;;;;;;;;;;;19.51;64.18;100119.56;5048589;28;1669;-35
2022/01/06 09:04:03;;;;;;;;;;;;;;;19.49;64.57;100108.97;5038454;28;1498;-35
2022/01/06 09:06:32;;;;;;;;;;;;;;;19.50;64.43;100120.53;5051436;28;1606;-35
2022/01/06 09:09:00;;;;;;;;;;;;;;;19.39;65.81;100119.78;5053757;28;1694;-36
2022/01/06 09:11:29;;;;;;;;;;;;;;;19.36;65.28;100112.06;5052653;28;1973;-35
2022/01/06 09:13:57;;;;;;;;;;;;;;;19.33;65.89;100120.41;5053768;28;1483;-35
2022/01/06 09:16:24;;;;;;;;;;;;;;;19.31;65.30;100114.34;5051311;28;1297;-35
2022/01/06 09:18:52;;;;;;;;;;;;;;;19.28;66.17;100095.91;5053183;28;1362;-35
2022/01/06 09:21:22;;;;;;;;;;;;;;;19.21;66.21;100111.75;5053278;28;1782;-35
2022/01/06 09:23:49;;;;;;;;;;;;;;;19.22;66.37;100107.25;5051921;28;1317;-35
2022/01/06 09:26:15;;;;;;;;;;;;;;;19.18;67.09;100100.47;5046831;28;1624;-35
2022/01/06 09:28:57;;;;;;;;;;;;;;;19.34;65.95;100100.66;5050769;28;1620;-34
2022/01/06 09:31:27;;;;;;;;;;;;;;;19.47;65.67;100076.94;5049580;28;1913;-34
2022/01/06 09:33:55;;;;;;;;;;;;;;;19.39;66.75;100092.97;5037582;28;1669;-35
2022/01/06 09:36:23;;;;;;;;;;;;;;;19.44;65.69;100071.91;5052802;28;1924;-35
2022/01/06 09:38:51;;;;;;;;;;;;;;;19.37;66.71;100094.13;5052482;28;1641;-35
2022/01/06 09:41:26;;;;;;;;;;;;;;;19.39;66.79;100082.25;5052711;28;1811;-34
2022/01/06 09:44:15;;;;;;;;;;;;;;;19.42;65.87;100075.75;5047268;28;1907;-34
2022/01/06 09:46:49;;;;;;;;;;;;;;;19.35;65.49;100067.47;5049192;28;1879;-36
2022/01/06 09:49:19;;;;;;;;;;;;;;;19.31;67.20;100068.78;5046522;28;1050;-35
2022/01/06 09:51:51;;;;;;;;;;;;;;;19.21;67.44;100068.00;5042165;28;1979;-35
2022/01/06 09:54:19;;;;;;;;;;;;;;;19.23;66.54;100064.19;5050456;28;1651;-36
2022/01/06 09:56:45;;;;;;;;;;;;;;;19.24;67.12;100078.44;5053118;28;1594;-34
2022/01/06 09:59:27;;;;;;;;;;;;;;;19.26;66.53;100045.13;5052886;28;2013;-35
2022/01/06 10:01:56;;;;;;;;;;;;;;;19.31;66.92;100057.22;5052002;28;1856;-34
2022/01/06 10:04:28;;;;;;;;;;;;;;;19.25;66.32;100053.31;5046922;28;1501;-35
2022/01/06 10:06:58;;;;;;;;;;;;;;;19.23;66.69;100055.31;5051691;28;1499;-35
2022/01/06 10:09:26;;;;;;;;;;;;;;;19.28;66.60;100069.09;5052853;28;1810;-35
2022/01/06 10:11:55;;;;;;;;;;;;;;;19.15;67.25;100057.91;5052993;28;1972;-35
2022/01/06 10:14:31;;;;;;;;;;;;;;;19.16;67.48;100067.63;5052176;28;1766;-35
2022/01/06 10:17:04;;;;;;;;;;;;;;;19.10;67.82;100073.59;5047810;28;1969;-35
2022/01/06 10:19:31;;;;;;;;;;;;;;;19.19;67.47;100059.28;5051944;28;1713;-35
2022/01/06 10:21:59;;;;;;;;;;;;;;;19.08;67.48;100071.94;5053781;28;1442;-35
2022/01/06 10:24:28;;;;;;;;;;;;;;;18.98;67.80;100067.63;5056346;28;1279;-35
2022/01/06 10:27:06;;;;;;;;;;;;;;;18.96;67.76;100088.38;5049459;28;1828;-35
2022/01/06 10:29:35;;;;;;;;;;;;;;;18.93;68.44;100075.28;5056477;28;1718;-35
2022/01/06 10:32:12;;;;;;;;;;;;;;;18.87;68.52;100076.72;5056522;28;1967;-35
2022/01/06 10:34:43;;;;;;;;;;;;;;;18.89;68.02;100069.38;5037518;28;1060;-35
2022/01/06 10:37:29;;;;;;;;;;;;;;;18.92;67.70;100078.94;5045612;28;1799;-35
2022/01/06 10:39:58;;;;;;;;;;;;;;;18.90;68.45;100076.44;5057734;28;1949;-35
2022/01/06 10:42:26;;;;;;;;;;;;;;;19.03;68.07;100063.50;5054603;28;1790;-35
2022/01/06 10:44:59;;;;;;;;;;;;;;;18.97;68.84;100077.50;5052518;28;1413;-35
2022/01/06 10:47:34;;;;;;;;;;;;;;;18.92;68.01;100078.94;5047730;28;1652;-35
2022/01/06 10:50:10;;;;;;;;;;;;;;;18.89;68.54;100061.34;5046441;28;1579;-36
2022/01/06 10:52:37;;;;;;;;;;;;;;;18.86;68.94;100078.56;5043712;28;1985;-35
2022/01/06 10:55:08;;;;;;;;;;;;;;;18.87;68.98;100066.84;5052770;28;1532;-35
2022/01/06 10:57:37;;;;;;;;;;;;;;;18.85;68.07;100079.56;5055273;28;1946;-35
2022/01/06 11:00:07;;;;;;;;;;;;;;;18.91;68.30;100067.41;5057914;28;1995;-35
2022/01/06 11:02:39;;;;;;;;;;;;;;;18.95;68.84;100060.75;5052872;28;1721;-34
2022/01/06 11:05:06;;;;;;;;;;;;;;;18.97;68.11;100055.22;5054961;28;1492;-34
2022/01/06 11:07:41;;;;;;;;;;;;;;;18.92;68.28;100057.50;5054369;28;1687;-34
2022/01/06 11:10:14;;;;;;;;;;;;;;;18.94;67.42;100063.56;5044774;28;1537;-35
2022/01/06 11:12:45;;;;;;;;;;;;;;;18.98;68.57;100072.97;5052108;28;1926;-35
2022/01/06 11:15:13;;;;;;;;;;;;;;;18.92;67.87;100073.59;5056209;28;1951;-34
2022/01/06 11:17:46;;;;;;;;;;;;;;;18.91;68.12;100064.72;5055849;28;1755;-34
2022/01/06 11:20:13;;;;;;;;;;;;;;;18.85;68.48;100055.44;5038373;28;1743;-34
2022/01/06 11:22:48;;;;;;;;;;;;;;;18.93;67.78;100056.53;5050936;28;2008;-36
2022/01/06 11:28:10;;;;;;;;;;;;;;;18.87;68.79;100063.34;5051218;28;1714;-35
2022/01/06 11:30:43;;;;;;;;;;;;;;;18.97;67.53;100066.78;5051107;28;1276;-36
2022/01/06 11:33:17;;;;;;;;;;;;;;;18.95;68.04;100079.50;5056069;28;1910;-34
2022/01/06 11:35:48;;;;;;;;;;;;;;;18.92;68.54;100066.41;5048909;28;1715;-34
2022/01/06 11:38:19;;;;;;;;;;;;;;;18.90;68.71;100055.00;5054001;28;1496;-35
2022/01/06 11:40:55;;;;;;;;;;;;;;;18.90;68.90;100056.81;5040585;28;1680;-35
2022/01/06 11:43:25;;;;;;;;;;;;;;;18.90;68.98;100049.66;5045662;28;1970;-35
2022/01/06 11:46:03;;;;;;;;;;;;;;;18.97;68.76;100044.50;5054034;28;1463;-35
2022/01/06 11:48:33;;;;;;;;;;;;;;;19.04;68.68;100056.31;5055300;28;1019;-34
2022/01/06 11:51:02;;;;;;;;;;;;;;;19.16;67.67;100051.53;5055499;28;2436;-35
2022/01/06 11:53:34;;;;;;;;;;;;;;;19.18;68.27;100066.50;5054585;28;1556;-35
2022/01/06 11:56:13;;;;;;;;;;;;;;;19.10;67.55;100046.78;5055382;28;1797;-35
2022/01/06 11:58:39;;;;;;;;;;;;;;;19.09;67.75;100059.38;5051350;28;2287;-35
2022/01/06 12:01:07;;;;;;;;;;;;;;;19.06;68.39;100060.53;5054185;28;1552;-35
2022/01/06 12:03:40;;;;;;;;;;;;;;;19.10;68.45;100071.78;5055381;28;1272;-35
2022/01/06 12:06:12;;;;;;;;;;;;;;;19.25;66.03;100074.75;5052261;28;1541;-34
2022/01/06 12:08:40;;;;;;;;;;;;;;;19.09;66.67;100059.38;5043352;28;1861;-35
2022/01/06 12:11:10;;;;;;;;;;;;;;;19.04;67.65;100078.59;5054690;28;1965;-35
2022/01/06 12:13:43;;;;;;;;;;;;;;;19.03;66.51;100071.53;5054716;28;1674;-35
2022/01/06 12:16:10;;;;;;;;;;;;;;;19.02;67.57;100085.06;5054869;28;1783;-35
2022/01/06 12:18:46;;;;;;;;;;;;;;;19.00;66.72;100077.22;5050242;28;1247;-35
2022/01/06 12:21:13;;;;;;;;;;;;;;;19.01;66.82;100089.59;5054486;28;1083;-35
2022/01/06 12:23:39;;;;;;;;;;;;;;;18.97;67.83;100092.75;5054788;28;1611;-35
2022/01/06 12:26:08;;;;;;;;;;;;;;;19.00;66.95;100092.41;5054592;28;1755;-34
2022/01/06 12:28:35;;;;;;;;;;;;;;;18.95;67.58;100082.16;5054722;28;1790;-35
2022/01/06 12:31:03;;;;;;;;;;;;;;;18.93;67.74;100094.88;5054538;28;1923;-34
2022/01/06 12:33:31;;;;;;;;;;;;;;;18.89;67.55;100088.13;5054994;28;1902;-34
2022/01/06 12:36:01;;;;;;;;;;;;;;;18.86;66.97;100080.38;5054521;28;1797;-34
2022/01/06 12:38:29;;;;;;;;;;;;;;;18.84;67.35;100093.09;5045887;28;1818;-35
2022/01/06 12:40:56;;;;;;;;;;;;;;;18.84;67.52;100095.78;5053934;28;1432;-35
2022/01/06 12:43:23;;;;;;;;;;;;;;;18.84;67.59;100098.44;5053628;28;1479;-34
2022/01/06 12:46:00;;;;;;;;;;;;;;;18.86;67.72;100101.81;5054403;28;1615;-35
2022/01/06 12:48:29;;;;;;;;;;;;;;;18.82;67.15;100116.50;5053873;28;1161;-35
2022/01/06 12:50:55;;;;;;;;;;;;;;;18.81;67.48;100113.00;5053994;28;1931;-35
2022/01/06 12:53:28;;;;;;;;;;;;;;;18.79;67.07;100106.94;5054070;28;1906;-35
2022/01/06 12:55:55;;;;;;;;;;;;;;;18.81;66.67;100117.53;5053697;28;1879;-35
2022/01/06 12:58:25;;;;;;;;;;;;;;;18.81;67.29;100104.97;5053418;28;1373;-35
2022/01/06 13:00:55;;;;;;;;;;;;;;;18.83;66.64;100120.91;5053743;28;1832;-35
2022/01/06 13:03:31;;;;;;;;;;;;;;;18.77;66.76;100108.91;5051690;28;1557;-35